Time;durP1;ratioP1;P1;durP2;ratioP2;P2;SDS_P1;SDS_P2;PMS_P1;PMS_P2;Temp;Humidity;BMP_temperature;BMP_pressure;BME280_temperature;BME280_humidity;BME280_pressure;Samples;Min_cycle;Max_cycle;Signal;HPM_P1;HPM_P2
2021/05/17 00:00:44;;;;;;;8.18;5.22;;;;;;;15.33;80.76;99057.89;1605194;89;20963;-83
2021/05/17 00:03:09;;;;;;;;;;;;;;;15.34;80.91;99059.53;1610356;87;21038;-84
2021/05/17 00:05:39;;;;;;;7.75;4.95;;;;;;;15.30;81.04;99058.84;1602952;87;20283;-84
2021/05/17 00:08:07;;;;;;;7.70;5.22;;;;;;;15.31;80.62;99055.97;1605711;87;21167;-83
2021/05/17 00:10:36;;;;;;;7.60;5.53;;;;;;;15.46;80.10;99060.16;1604529;87;21070;-83
2021/05/17 00:13:02;;;;;;;9.48;5.25;;;;;;;15.36;80.21;99049.48;1603794;87;21129;-84
2021/05/17 00:15:27;;;;;;;7.47;4.83;;;;;;;15.38;80.08;99051.42;1604102;87;21680;-84
2021/05/17 00:17:55;;;;;;;7.72;5.40;;;;;;;15.43;80.01;99058.24;1603041;87;20962;-82
2021/05/17 00:20:24;;;;;;;7.30;5.35;;;;;;;15.49;79.65;99061.06;1601270;87;23153;-83
2021/05/17 00:22:50;;;;;;;6.20;4.87;;;;;;;15.56;79.32;99061.32;1600774;87;21097;-83
2021/05/17 00:25:22;;;;;;;8.58;5.28;;;;;;;15.54;79.25;99058.59;1605976;87;21183;-83
2021/05/17 00:27:47;;;;;;;8.18;5.15;;;;;;;15.60;78.96;99052.41;1603466;87;21143;-84
2021/05/17 00:30:15;;;;;;;7.80;5.12;;;;;;;15.55;79.12;99052.22;1604032;87;20935;-83
2021/05/17 00:32:42;;;;;;;7.40;5.45;;;;;;;15.57;79.14;99042.20;1605508;87;21219;-84
2021/05/17 00:35:12;;;;;;;8.55;5.75;;;;;;;15.65;78.73;99051.77;1602759;87;21106;-85
2021/05/17 00:37:38;;;;;;;9.58;5.50;;;;;;;15.61;78.78;99052.20;1605782;87;21080;-85
2021/05/17 00:40:07;;;;;;;7.97;5.50;;;;;;;15.56;78.62;99047.21;1608478;87;21683;-85
2021/05/17 00:42:34;;;;;;;8.38;5.78;;;;;;;15.64;78.25;99048.27;1584500;87;21114;-85
2021/05/17 00:45:01;;;;;;;9.45;5.60;;;;;;;15.63;78.27;99050.65;1581735;89;21687;-85
2021/05/17 00:47:29;;;;;;;7.75;5.50;;;;;;;15.66;78.01;99052.88;1583833;89;21124;-84
2021/05/17 00:49:57;;;;;;;8.30;5.12;;;;;;;15.64;77.98;99056.25;1606104;87;21137;-85
2021/05/17 00:52:27;;;;;;;9.03;5.95;;;;;;;15.56;78.14;99052.53;1605440;87;21034;-85
2021/05/17 00:54:53;;;;;;;8.33;5.47;;;;;;;15.55;78.15;99048.23;1605240;87;21121;-84
2021/05/17 00:57:19;;;;;;;9.28;5.62;;;;;;;15.57;77.99;99041.67;1601209;87;21123;-84
2021/05/17 00:59:47;;;;;;;9.43;5.80;;;;;;;15.52;78.20;99048.66;1604038;87;21231;-84
2021/05/17 01:02:13;;;;;;;9.63;5.58;;;;;;;15.55;77.98;99046.90;1604601;87;21181;-85
2021/05/17 01:04:39;;;;;;;9.85;5.58;;;;;;;15.58;77.78;99054.45;1602652;87;20983;-85
2021/05/17 01:07:06;;;;;;;10.35;5.75;;;;;;;15.37;78.22;99056.44;1603800;87;21078;-84
2021/05/17 01:09:33;;;;;;;7.95;6.10;;;;;;;15.25;78.63;99058.15;1604478;87;21692;-85
2021/05/17 01:12:03;;;;;;;7.00;5.45;;;;;;;15.17;79.07;99055.75;1607298;87;21690;-85
2021/05/17 01:14:29;;;;;;;8.83;5.72;;;;;;;15.17;79.19;99061.06;1605356;87;22184;-85
2021/05/17 01:16:55;;;;;;;8.63;5.78;;;;;;;15.08;79.46;99066.61;1605693;87;21034;-84
2021/05/17 01:19:43;;;;;;;9.48;5.85;;;;;;;15.11;79.49;99064.58;1612685;86;20991;-85
2021/05/17 01:22:21;;;;;;;7.97;5.78;;;;;;;15.17;79.08;99061.06;1620945;86;21129;-84
2021/05/17 01:24:39;;;;;;;8.30;6.03;;;;;;;15.31;78.46;99061.81;1628223;86;21061;-84
2021/05/17 01:27:05;;;;;;;8.28;6.15;;;;;;;15.26;78.51;99061.13;1630303;86;21081;-84
2021/05/17 01:29:31;;;;;;;8.13;5.75;;;;;;;15.17;78.56;99055.75;1629859;86;21186;-83
2021/05/17 01:32:01;;;;;;;7.97;5.78;;;;;;;15.15;78.51;99059.11;1585234;87;21662;-84
2021/05/17 01:34:28;;;;;;;7.37;6.08;;;;;;;15.18;78.46;99060.02;1606545;87;21110;-84
2021/05/17 01:36:54;;;;;;;8.20;6.25;;;;;;;15.19;78.23;99065.65;1606491;87;21648;-84
2021/05/17 01:39:25;;;;;;;12.45;6.15;;;;;;;15.26;78.13;99065.11;1628741;86;21671;-84
2021/05/17 01:41:55;;;;;;;9.48;6.42;;;;;;;15.20;78.10;99067.29;1629273;86;21154;-83
2021/05/17 01:44:23;;;;;;;8.15;5.87;;;;;;;15.30;77.77;99068.95;1629998;86;21208;-83
2021/05/17 01:46:49;;;;;;;8.80;6.58;;;;;;;15.11;78.14;99067.23;1629926;86;21070;-84
2021/05/17 01:49:15;;;;;;;7.53;5.85;;;;;;;15.16;78.03;99066.88;1630650;86;21128;-83
2021/05/17 01:51:48;;;;;;;7.35;5.78;;;;;;;15.15;78.03;99068.42;1630087;87;21684;-83
2021/05/17 01:54:15;;;;;;;8.73;6.30;;;;;;;15.16;77.85;99068.73;1630589;86;21726;-83
2021/05/17 01:56:44;;;;;;;9.20;6.30;;;;;;;15.13;77.80;99062.52;1631172;86;21452;-84
2021/05/17 01:59:09;;;;;;;8.40;6.08;;;;;;;15.17;77.64;99061.06;1630924;86;21110;-84
2021/05/17 02:01:35;;;;;;;9.68;6.28;;;;;;;15.12;77.51;99063.53;1632429;86;20952;-84
2021/05/17 02:04:02;;;;;;;8.18;6.10;;;;;;;15.18;77.32;99066.17;1633169;86;21018;-83
2021/05/17 02:06:28;;;;;;;9.58;6.62;;;;;;;15.15;77.20;99077.73;1632671;86;21600;-83
2021/05/17 02:08:53;;;;;;;9.73;6.70;;;;;;;15.01;77.56;99073.83;1629365;86;21489;-80
2021/05/17 02:11:22;;;;;;;9.53;6.62;;;;;;;15.08;77.30;99073.78;1629238;86;20890;-79
2021/05/17 02:13:50;;;;;;;8.48;6.78;;;;;;;15.11;77.13;99072.55;1630442;86;21114;-81
2021/05/17 02:16:17;;;;;;;9.05;6.85;;;;;;;15.11;77.08;99072.55;1605953;87;21292;-82
2021/05/17 02:18:46;;;;;;;10.58;6.65;;;;;;;15.11;76.88;99069.89;1631296;87;21042;-80
2021/05/17 02:21:15;;;;;;;10.70;6.67;;;;;;;15.01;77.16;99081.80;1616575;86;20969;-80
2021/05/17 02:23:42;;;;;;;10.98;6.65;;;;;;;14.86;77.82;99079.92;1616508;87;21749;-81
2021/05/17 02:26:08;;;;;;;9.10;6.83;;;;;;;14.72;78.15;99080.48;1617776;87;21096;-85
2021/05/17 02:28:38;;;;;;;10.28;6.83;;;;;;;14.69;78.37;99084.36;1614752;87;21985;-81
2021/05/17 02:31:06;;;;;;;8.95;6.65;;;;;;;14.64;78.40;99094.00;1614698;87;21176;-81
2021/05/17 02:33:32;;;;;;;;;;;;;;;14.57;78.95;99096.63;1617510;87;21119;-83
2021/05/17 02:35:58;;;;;;;10.63;6.45;;;;;;;14.51;79.23;99097.45;1614932;87;20212;-82
2021/05/17 02:38:27;;;;;;;9.18;6.50;;;;;;;14.46;78.94;99098.59;1614654;87;21132;-81
2021/05/17 02:40:52;;;;;;;8.73;6.67;;;;;;;14.59;78.69;99099.91;1585456;87;21326;-81
2021/05/17 02:43:21;;;;;;;8.98;6.70;;;;;;;14.71;78.34;99098.27;1617388;87;21026;-81
2021/05/17 02:45:47;;;;;;;9.48;7.00;;;;;;;14.71;77.87;99090.30;1616636;87;21116;-80
2021/05/17 02:48:17;;;;;;;9.53;7.50;;;;;;;14.64;78.20;99096.66;1615411;87;21178;-82
2021/05/17 02:50:46;;;;;;;8.83;7.30;;;;;;;14.65;78.11;99098.27;1618436;87;21085;-82
2021/05/17 02:53:38;;;;;;;12.05;7.65;;;;;;;14.78;77.72;99094.78;1614695;87;21696;-82
2021/05/17 02:56:12;;;;;;;8.50;6.67;;;;;;;14.70;77.57;99095.83;1614832;88;21036;-83
2021/05/17 02:58:42;;;;;;;9.55;6.92;;;;;;;14.78;77.41;99093.45;1614617;87;21081;-85
2021/05/17 03:01:28;;;;;;;11.48;7.15;;;;;;;14.81;77.13;99100.48;1617549;87;21253;-83
2021/05/17 03:03:57;;;;;;;10.65;6.87;;;;;;;14.81;77.09;99089.05;1614893;87;21108;-82
2021/05/17 03:06:39;;;;;;;9.30;6.58;;;;;;;14.83;77.01;99094.95;1614929;87;21207;-83
2021/05/17 03:09:09;;;;;;;9.43;7.15;;;;;;;14.87;76.85;99097.51;1614598;87;21410;-83
2021/05/17 03:11:45;;;;;;;8.30;6.55;;;;;;;14.88;76.82;99099.12;1613290;87;21115;-82
2021/05/17 03:14:16;;;;;;;12.95;6.90;;;;;;;14.89;76.76;99100.77;1590341;87;21164;-82
2021/05/17 03:16:48;;;;;;;9.63;7.17;;;;;;;14.79;76.94;99107.02;1615202;87;21259;-82
2021/05/17 03:19:13;;;;;;;9.85;7.20;;;;;;;14.85;76.94;99103.52;1613725;87;21123;-83
2021/05/17 03:21:43;;;;;;;9.80;7.47;;;;;;;14.95;76.58;99103.91;1604375;86;20947;-82
2021/05/17 03:24:11;;;;;;;9.25;7.62;;;;;;;14.92;76.61;99101.67;1607663;87;21038;-82
2021/05/17 03:26:36;;;;;;;;;;;;;;;14.95;76.48;99106.56;1605406;87;21691;-83
2021/05/17 03:29:05;;;;;;;11.10;8.28;;;;;;;14.94;76.46;99107.58;1603359;87;20236;-83
2021/05/17 03:31:33;;;;;;;8.73;7.45;;;;;;;14.96;76.39;99111.36;1604289;86;21331;-83
2021/05/17 03:34:01;;;;;;;12.20;8.65;;;;;;;14.86;76.85;99119.27;1582255;88;21089;-83
2021/05/17 03:36:27;;;;;;;10.45;7.78;;;;;;;14.91;76.84;99114.65;1605236;87;21018;-83
2021/05/17 03:38:53;;;;;;;11.55;8.15;;;;;;;14.93;77.02;99111.29;1603340;87;20915;-83
2021/05/17 03:41:19;;;;;;;10.75;8.08;;;;;;;14.91;77.02;99114.65;1604115;87;21035;-83
2021/05/17 03:43:44;;;;;;;11.12;7.97;;;;;;;14.79;77.67;99117.65;1606349;87;21456;-83
2021/05/17 03:46:11;;;;;;;13.50;8.83;;;;;;;14.82;77.92;99115.91;1609856;87;20951;-83
2021/05/17 03:48:43;;;;;;;12.37;8.90;;;;;;;14.83;77.72;99105.59;1588469;87;20965;-83
2021/05/17 03:51:12;;;;;;;12.33;8.83;;;;;;;14.82;77.80;99105.27;1615888;87;22321;-84
2021/05/17 03:53:38;;;;;;;12.43;8.48;;;;;;;14.81;77.92;99110.30;1603755;89;21299;-84
2021/05/17 03:56:07;;;;;;;11.75;8.85;;;;;;;14.93;77.56;99112.62;1590726;87;21139;-83
2021/05/17 03:58:33;;;;;;;11.78;8.88;;;;;;;14.98;77.29;99113.31;1602265;87;21676;-83
2021/05/17 04:01:00;;;;;;;11.08;8.20;;;;;;;15.04;77.14;99113.28;1585103;88;21082;-84
2021/05/17 04:03:27;;;;;;;10.82;8.20;;;;;;;15.03;77.18;99109.50;1603421;87;21732;-83
2021/05/17 04:06:12;;;;;;;;;;;;;;;15.13;76.84;99113.03;1613234;87;21113;-84
2021/05/17 04:13:43;;;;;;;10.87;8.33;;;;;;;15.17;76.77;99111.59;1601800;87;21150;-87
2021/05/17 04:16:10;;;;;;;10.88;8.28;;;;;;;15.23;76.79;99110.75;1605010;87;21302;-83
2021/05/17 04:18:40;;;;;;;11.93;8.60;;;;;;;15.29;76.79;99125.86;1610569;87;21132;-82
2021/05/17 04:21:06;;;;;;;10.30;8.35;;;;;;;15.36;76.67;99118.64;1612870;86;21324;-83
2021/05/17 04:23:32;;;;;;;10.60;8.35;;;;;;;15.39;76.43;99120.88;1606689;87;20982;-82
2021/05/17 04:26:00;;;;;;;12.88;8.98;;;;;;;15.42;76.27;99119.13;1603013;87;21026;-82
2021/05/17 04:28:28;;;;;;;;;;;;;;;15.55;75.67;99119.58;1613267;87;21126;-84
2021/05/17 04:30:57;;;;;;;12.58;8.20;;;;;;;15.65;75.68;99119.10;1612205;87;20292;-86
2021/05/17 04:33:26;;;;;;;11.55;8.75;;;;;;;15.69;75.58;99117.66;1588176;88;21337;-85
2021/05/17 04:35:52;;;;;;;11.50;8.90;;;;;;;15.65;75.94;99123.62;1600003;88;21287;-86
2021/05/17 04:38:18;;;;;;;12.18;9.48;;;;;;;15.73;75.77;99124.16;1604093;87;21035;-85
2021/05/17 04:40:46;;;;;;;13.10;9.35;;;;;;;15.73;75.85;99122.02;1602049;88;21473;-83
2021/05/17 04:43:13;;;;;;;;;;;;;;;15.78;76.06;99115.06;1611437;87;21046;-84
2021/05/17 04:45:42;;;;;;;13.72;9.63;;;;;;;15.78;76.33;99119.05;1611965;87;20180;-84
2021/05/17 04:48:08;;;;;;;13.70;9.95;;;;;;;15.84;76.02;99124.54;1607783;87;21592;-83
2021/05/17 04:50:35;;;;;;;13.45;10.00;;;;;;;15.91;75.86;99133.27;1613023;85;21118;-84
2021/05/17 04:53:01;;;;;;;15.45;9.93;;;;;;;15.99;75.80;99129.03;1607639;87;28182;-84
2021/05/17 04:55:28;;;;;;;14.15;10.05;;;;;;;16.02;75.70;99124.61;1609653;87;21042;-84
2021/05/17 04:57:58;;;;;;;13.55;9.45;;;;;;;16.08;75.81;99132.23;1603441;87;21182;-86
2021/05/17 05:00:25;;;;;;;14.80;10.60;;;;;;;16.13;75.76;99129.75;1606227;87;21181;-86
2021/05/17 05:02:54;;;;;;;17.40;10.58;;;;;;;16.17;75.95;99128.78;1615727;87;21111;-85
2021/05/17 05:05:22;;;;;;;17.10;10.93;;;;;;;16.15;76.02;99135.14;1604162;87;21738;-86
2021/05/17 05:07:54;;;;;;;13.78;10.63;;;;;;;16.17;76.34;99131.45;1589399;88;21126;-83
2021/05/17 05:10:22;;;;;;;17.75;11.63;;;;;;;16.21;76.36;99129.99;1617292;87;21047;-83
2021/05/17 05:12:51;;;;;;;15.20;10.68;;;;;;;16.32;76.23;99123.94;1591819;87;21093;-86
2021/05/17 05:15:19;;;;;;;15.53;10.80;;;;;;;16.37;76.01;99128.09;1610085;87;21690;-86
2021/05/17 05:17:45;;;;;;;16.23;11.43;;;;;;;16.51;75.65;99122.95;1592861;87;21250;-87
2021/05/17 05:20:13;;;;;;;18.42;10.63;;;;;;;16.60;75.27;99123.98;1605721;87;20970;-86
2021/05/17 05:22:41;;;;;;;15.20;11.43;;;;;;;16.64;75.26;99124.66;1605756;87;21193;-86
2021/05/17 05:25:10;;;;;;;15.60;12.10;;;;;;;16.70;75.18;99122.94;1603671;87;23310;-83
2021/05/17 05:27:44;;;;;;;14.90;11.53;;;;;;;16.73;74.99;99125.16;1603921;87;21167;-81
2021/05/17 05:30:22;;;;;;;16.23;12.10;;;;;;;16.77;75.31;99123.69;1586230;87;21041;-82
2021/05/17 05:32:51;;;;;;;16.67;11.40;;;;;;;16.84;74.88;99123.61;1602290;87;21192;-81
2021/05/17 05:35:21;;;;;;;14.28;11.38;;;;;;;16.86;75.06;99120.25;1603343;87;21116;-84
2021/05/17 05:37:50;;;;;;;15.80;12.33;;;;;;;16.95;74.76;99130.08;1606947;87;21190;-85
2021/05/17 05:40:16;;;;;;;17.20;12.03;;;;;;;17.06;74.55;99126.69;1604636;87;21109;-82
2021/05/17 05:42:42;;;;;;;20.30;12.07;;;;;;;17.20;73.93;99126.81;1603382;87;21134;-84
2021/05/17 05:45:10;;;;;;;18.57;11.97;;;;;;;17.22;73.76;99123.92;1583767;87;21051;-91
2021/05/17 05:47:39;;;;;;;16.45;11.05;;;;;;;17.34;73.32;99130.63;1605175;87;21099;-85
2021/05/17 05:50:09;;;;;;;16.90;12.13;;;;;;;17.44;73.08;99126.91;1587128;87;21027;-85
2021/05/17 05:52:38;;;;;;;15.05;11.73;;;;;;;17.58;72.80;99124.87;1584602;87;21071;-88
2021/05/17 05:55:06;;;;;;;17.27;12.78;;;;;;;17.61;72.41;99125.75;1582344;89;21110;-90
2021/05/17 05:57:41;;;;;;;18.17;13.28;;;;;;;17.62;72.32;99130.56;1602192;87;21738;-89
2021/05/17 06:00:02;;;;;;;20.05;12.55;;;;;;;17.54;72.35;99129.02;1606677;87;21102;-89
2021/05/17 06:02:33;;;;;;;17.23;13.13;;;;;;;17.62;72.18;99126.55;1605722;87;21136;-87
2021/05/17 06:05:00;;;;;;;19.30;13.08;;;;;;;17.72;72.23;99120.95;1604775;89;21143;-86
2021/05/17 06:07:29;;;;;;;19.25;14.63;;;;;;;17.79;72.17;99114.70;1603215;87;21159;-88
2021/05/17 06:09:58;;;;;;;19.20;13.93;;;;;;;17.74;71.93;99112.22;1600253;87;21865;-89
2021/05/17 06:12:25;;;;;;;18.45;13.25;;;;;;;17.79;71.83;99116.87;1604842;87;21022;-87
2021/05/17 06:14:58;;;;;;;18.03;13.13;;;;;;;17.87;71.89;99119.20;1604467;89;21159;-87
2021/05/17 06:17:19;;;;;;;20.90;14.38;;;;;;;17.86;71.74;99120.23;1608494;87;21162;-86
2021/05/17 06:19:48;;;;;;;19.27;13.95;;;;;;;17.70;71.74;99120.91;1606581;87;21036;-89
2021/05/17 06:22:14;;;;;;;19.60;13.60;;;;;;;17.77;72.09;99124.28;1606973;87;21145;-86
2021/05/17 06:24:47;;;;;;;19.95;13.35;;;;;;;17.86;72.01;99122.91;1581999;89;21008;-86
2021/05/17 06:27:15;;;;;;;17.45;12.73;;;;;;;17.90;71.94;99118.77;1604190;87;21173;-84
2021/05/17 06:29:43;;;;;;;19.70;14.45;;;;;;;18.03;71.86;99116.41;1606866;87;21628;-85
2021/05/17 06:32:09;;;;;;;19.55;13.93;;;;;;;18.11;71.48;99116.59;1605013;87;21149;-84
2021/05/17 06:34:35;;;;;;;23.83;15.72;;;;;;;18.10;70.99;99109.61;1602300;87;21121;-84
2021/05/17 06:37:01;;;;;;;21.77;15.20;;;;;;;18.14;71.01;99112.66;1606862;87;21132;-84
2021/05/17 06:39:27;;;;;;;19.57;13.98;;;;;;;18.17;70.82;99109.52;1605269;87;21104;-83
2021/05/17 06:41:53;;;;;;;19.90;14.58;;;;;;;18.23;70.52;99120.09;1601949;87;20975;-83
2021/05/17 06:44:23;;;;;;;20.55;15.20;;;;;;;18.33;70.25;99120.03;1604476;87;21818;-83
2021/05/17 06:46:49;;;;;;;21.75;14.25;;;;;;;18.32;70.32;99120.56;1606350;87;21126;-84
2021/05/17 06:49:16;;;;;;;22.48;15.78;;;;;;;18.37;70.32;99128.69;1606748;87;21072;-84
2021/05/17 06:51:42;;;;;;;;;;;;;;;18.40;69.88;99126.89;1611347;87;21646;-84
2021/05/17 06:54:19;;;;;;;18.50;13.53;;;;;;;18.41;70.09;99118.34;1604536;87;20188;-83
2021/05/17 06:56:50;;;;;;;19.55;14.40;;;;;;;18.38;69.82;99118.80;1603012;87;21136;-84
2021/05/17 06:59:14;;;;;;;19.55;14.30;;;;;;;18.40;70.10;99110.84;1586210;86;21174;-84
2021/05/17 07:01:40;;;;;;;25.55;15.88;;;;;;;18.57;70.05;99101.59;1590939;86;21038;-85
2021/05/17 07:04:09;;;;;;;21.25;15.43;;;;;;;18.63;69.92;99100.66;1610448;85;21098;-84
2021/05/17 07:06:38;;;;;;;21.77;15.30;;;;;;;18.74;69.76;99106.23;1608685;86;21154;-84
2021/05/17 07:12:09;;;;;;;24.52;15.78;;;;;;;18.65;69.61;99101.23;1608907;87;21056;-85
2021/05/17 07:14:31;;;;;;;24.63;15.90;;;;;;;18.73;69.44;99103.27;1581074;89;21054;-84
2021/05/17 07:16:59;;;;;;;23.70;17.17;;;;;;;18.87;69.18;99105.99;1601692;89;21110;-84
2021/05/17 07:19:28;;;;;;;21.07;15.48;;;;;;;18.84;69.24;99101.08;1603534;89;22298;-84
2021/05/17 07:24:39;;;;;;;23.00;16.30;;;;;;;18.93;68.31;99102.37;1619351;88;21057;-86
2021/05/17 07:27:06;;;;;;;24.18;16.52;;;;;;;18.94;68.58;99093.30;1620367;86;22291;-89
2021/05/17 07:29:37;;;;;;;24.60;17.12;;;;;;;18.94;68.69;99095.98;1628066;86;21171;-87
2021/05/17 07:32:08;;;;;;;22.58;16.37;;;;;;;18.96;68.87;99088.52;1619457;86;21646;-86
2021/05/17 07:34:39;;;;;;;22.58;15.63;;;;;;;19.03;68.84;99086.23;1619236;87;21702;-85
2021/05/17 07:37:08;;;;;;;20.72;15.65;;;;;;;19.06;68.80;99081.75;1620891;87;21133;-86
2021/05/17 07:39:35;;;;;;;19.80;14.28;;;;;;;19.12;68.50;99084.27;1620325;87;21360;-82
2021/05/17 07:42:03;;;;;;;21.42;15.15;;;;;;;19.17;68.02;99088.91;1592447;88;20945;-83
2021/05/17 07:44:34;;;;;;;21.77;15.93;;;;;;;19.21;68.09;99083.38;1619679;88;21664;-80
2021/05/17 07:47:01;;;;;;;21.30;15.03;;;;;;;19.19;68.21;99089.50;1615500;88;21607;-80
2021/05/17 07:50:12;;;;;;;19.57;14.33;;;;;;;19.17;67.75;99082.22;1619603;87;21660;-84
2021/05/17 07:52:01;;;;;;;17.85;13.65;;;;;;;19.42;67.62;99086.42;1613838;86;21105;-84
2021/05/17 07:54:26;;;;;;;18.52;13.88;;;;;;;19.47;67.57;99086.53;1621801;86;21045;-85
2021/05/17 07:56:52;;;;;;;17.10;12.98;;;;;;;19.49;67.63;99081.20;1621491;87;21000;-84
2021/05/17 07:59:19;;;;;;;17.90;12.70;;;;;;;19.48;67.40;99086.80;1620058;87;20920;-85
2021/05/17 08:01:45;;;;;;;17.85;12.15;;;;;;;19.52;67.31;99087.95;1619114;88;21126;-85
2021/05/17 08:04:16;;;;;;;17.57;12.25;;;;;;;19.40;67.09;99096.03;1619878;86;21212;-87
2021/05/17 08:06:42;;;;;;;16.12;12.15;;;;;;;19.42;67.05;99098.47;1619825;87;21049;-86
2021/05/17 08:09:08;;;;;;;16.20;12.00;;;;;;;19.52;66.77;99093.30;1618801;88;21071;-88
2021/05/17 08:11:35;;;;;;;17.20;11.48;;;;;;;19.46;67.01;99099.63;1619665;87;20989;-87
2021/05/17 08:14:05;;;;;;;15.75;11.68;;;;;;;19.62;66.86;99100.16;1619241;87;21166;-85
2021/05/17 08:16:34;;;;;;;16.50;11.50;;;;;;;19.57;66.60;99104.09;1619383;87;21724;-86
2021/05/17 08:18:59;;;;;;;19.62;12.47;;;;;;;19.63;66.47;99105.81;1619995;86;21053;-86
2021/05/17 08:21:26;;;;;;;18.10;11.43;;;;;;;19.46;67.02;99095.61;1624237;86;20925;-83
2021/05/17 08:23:57;;;;;;;13.75;10.38;;;;;;;19.53;66.87;99102.98;1624727;85;21103;-84
2021/05/17 08:26:26;;;;;;;12.23;9.68;;;;;;;19.62;66.45;99094.80;1618252;87;21673;-82
2021/05/17 08:28:52;;;;;;;13.50;10.20;;;;;;;19.79;66.81;99098.07;1621894;87;21227;-84
2021/05/17 08:31:23;;;;;;;14.55;9.38;;;;;;;19.64;66.97;99098.58;1590165;88;21100;-85
2021/05/17 08:33:51;;;;;;;13.80;9.58;;;;;;;19.83;66.41;99096.54;1616833;87;21024;-86
2021/05/17 08:36:19;;;;;;;11.65;9.40;;;;;;;19.88;65.76;99091.25;1607449;87;21092;-86
2021/05/17 08:38:45;;;;;;;9.73;7.83;;;;;;;19.84;65.58;99081.56;1616305;87;21491;-86
2021/05/17 08:41:13;;;;;;;11.63;8.20;;;;;;;20.01;65.00;99084.75;1613206;87;21013;-85
2021/05/17 08:43:41;;;;;;;13.50;9.03;;;;;;;20.06;65.30;99076.27;1612249;88;21649;-85
2021/05/17 08:46:12;;;;;;;12.65;8.83;;;;;;;19.98;65.44;99076.69;1611475;88;21297;-83
2021/05/17 08:48:47;;;;;;;10.98;8.55;;;;;;;20.04;65.74;99077.05;1611287;87;21630;-82
2021/05/17 08:51:32;;;;;;;;;;;;;;;20.21;65.35;99076.20;1606168;88;21725;-85
2021/05/17 08:54:02;;;;;;;11.40;7.30;;;;;;;20.37;64.92;99076.72;1619817;87;21687;-86
2021/05/17 08:56:32;;;;;;;11.95;8.00;;;;;;;20.53;64.47;99071.56;1614229;87;21195;-86
2021/05/17 08:59:05;;;;;;;10.68;7.95;;;;;;;20.53;63.41;99079.07;1613911;88;21489;-87
2021/05/17 09:01:33;;;;;;;10.70;7.75;;;;;;;20.53;63.23;99071.56;1611509;87;21648;-86
2021/05/17 09:04:06;;;;;;;9.95;6.42;;;;;;;20.52;62.81;99067.25;1613130;87;21040;-81
2021/05/17 09:06:54;;;;;;;8.83;6.33;;;;;;;20.63;62.51;99068.48;1609984;88;40105;-82
2021/05/17 09:09:36;;;;;;;12.47;6.08;;;;;;;20.70;61.31;99076.38;1610240;88;21028;-87
2021/05/17 09:12:07;;;;;;;6.92;5.15;;;;;;;20.76;61.14;99078.05;1612492;88;21175;-86
2021/05/17 09:14:35;;;;;;;7.60;5.58;;;;;;;20.78;59.84;99073.24;1612168;87;21194;-85
2021/05/17 09:17:11;;;;;;;7.85;5.05;;;;;;;20.79;59.87;99069.51;1613905;87;21196;-86
2021/05/17 09:19:40;;;;;;;8.63;4.80;;;;;;;20.71;58.89;99059.23;1612100;87;21293;-87
2021/05/17 09:22:18;;;;;;;8.93;4.62;;;;;;;20.79;58.01;99046.70;1584019;88;21588;-86
2021/05/17 09:24:57;;;;;;;5.85;4.15;;;;;;;20.75;57.49;99042.89;1613040;88;21029;-85
2021/05/17 09:27:27;;;;;;;6.35;3.70;;;;;;;20.82;57.52;99049.42;1613441;88;21086;-85
2021/05/17 09:30:00;;;;;;;6.10;3.90;;;;;;;20.89;56.79;99041.17;1613768;88;21139;-86
2021/05/17 09:32:32;;;;;;;5.80;4.05;;;;;;;21.02;57.48;99043.48;1614132;88;21679;-86
2021/05/17 09:35:12;;;;;;;8.75;4.47;;;;;;;21.12;57.43;99040.88;1614135;86;21631;-85
2021/05/17 09:37:56;;;;;;;6.70;3.77;;;;;;;21.20;56.87;99038.81;1615667;85;21090;-86
2021/05/17 09:40:24;;;;;;;5.62;4.05;;;;;;;21.19;55.69;99042.55;1613810;88;22429;-85
2021/05/17 09:43:08;;;;;;;5.35;3.83;;;;;;;21.29;55.47;99042.67;1613531;87;21108;-85
2021/05/17 09:45:39;;;;;;;5.33;3.75;;;;;;;21.29;55.22;99035.95;1613689;87;21371;-85
2021/05/17 09:48:17;;;;;;;5.60;3.65;;;;;;;21.36;52.61;99032.51;1612074;87;21134;-85
2021/05/17 09:51:07;;;;;;;6.45;3.90;;;;;;;21.39;53.33;99037.38;1613952;87;21042;-84
2021/05/17 09:53:38;;;;;;;7.22;3.50;;;;;;;21.48;53.76;99038.53;1614071;87;22554;-85
2021/05/17 09:56:16;;;;;;;6.90;3.42;;;;;;;21.61;53.35;99037.34;1620077;85;21131;-87
2021/05/17 09:59:03;;;;;;;6.72;3.30;;;;;;;21.65;51.67;99037.64;1617001;87;21451;-86
2021/05/17 10:01:30;;;;;;;5.87;3.30;;;;;;;21.83;51.92;99029.17;1587361;87;21052;-86
2021/05/17 10:04:06;;;;;;;7.30;3.02;;;;;;;21.97;51.49;99028.20;1614947;87;21047;-88
2021/05/17 10:06:34;;;;;;;4.90;3.15;;;;;;;22.04;50.27;99028.77;1615677;87;21067;-86
2021/05/17 10:09:00;;;;;;;4.83;3.20;;;;;;;22.12;50.19;99030.16;1645729;85;21153;-88
2021/05/17 10:11:31;;;;;;;5.67;2.90;;;;;;;22.16;49.27;99032.61;1646961;84;21747;-85
2021/05/17 10:13:57;;;;;;;6.42;2.85;;;;;;;22.07;48.96;99033.37;1647590;84;21056;-87
2021/05/17 10:16:24;;;;;;;4.97;2.70;;;;;;;22.19;49.11;99032.09;1647118;84;21223;-89
2021/05/17 10:18:50;;;;;;;4.10;2.50;;;;;;;22.34;49.63;99023.85;1645856;85;21095;-86
2021/05/17 10:21:19;;;;;;;5.90;2.33;;;;;;;22.37;48.32;99026.02;1649900;85;21090;-87
2021/05/17 10:23:46;;;;;;;4.15;2.40;;;;;;;22.41;47.00;99019.06;1648425;84;21730;-86
2021/05/17 10:26:22;;;;;;;5.92;2.30;;;;;;;22.43;44.34;99022.28;1647229;84;21100;-89
2021/05/17 10:28:53;;;;;;;4.35;2.47;;;;;;;22.23;46.23;99019.75;1647212;85;21053;-85
2021/05/17 10:31:22;;;;;;;4.75;2.42;;;;;;;22.36;46.11;99017.16;1629296;86;21044;-82
2021/05/17 10:34:08;;;;;;;6.92;2.67;;;;;;;22.43;45.58;99020.94;1609681;86;21030;-89
2021/05/17 10:36:58;;;;;;;5.77;2.63;;;;;;;22.41;45.81;99019.06;1645080;85;21256;-84
2021/05/17 10:39:30;;;;;;;6.17;2.60;;;;;;;22.44;46.42;99017.19;1647538;85;21030;-87
2021/05/17 10:48:27;;;;;;;4.05;2.40;;;;;;;22.45;45.88;99003.19;1645436;85;21535;-91
2021/05/17 10:51:15;;;;;;;4.37;2.10;;;;;;;22.46;44.21;98998.89;1645122;85;21699;-84
2021/05/17 10:53:54;;;;;;;3.45;2.05;;;;;;;22.56;43.61;99001.64;1644210;85;21819;-86
2021/05/17 11:02:30;;;;;;;5.42;2.08;;;;;;;22.98;43.57;99009.81;1651168;85;21032;-83
2021/05/17 11:05:19;;;;;;;3.58;2.10;;;;;;;23.08;41.83;99007.98;1648973;83;22560;-83
2021/05/17 11:07:53;;;;;;;5.53;2.60;;;;;;;23.24;41.92;99010.70;1628358;86;21021;-86
2021/05/17 11:10:33;;;;;;;5.45;2.50;;;;;;;23.19;40.97;99000.73;1643675;85;21051;-85
2021/05/17 11:13:16;;;;;;;4.67;2.10;;;;;;;23.24;41.05;99003.45;1642247;85;21664;-85
2021/05/17 11:16:08;;;;;;;3.70;2.40;;;;;;;23.07;39.99;99000.14;1644954;85;21227;-84
2021/05/17 11:18:51;;;;;;;4.30;2.45;;;;;;;23.34;41.24;99001.81;1640784;85;21059;-85
2021/05/17 11:21:27;;;;;;;5.12;2.02;;;;;;;23.48;41.46;99005.06;1649635;85;21057;-91
2021/05/17 11:24:02;;;;;;;5.45;2.20;;;;;;;23.52;40.95;98999.93;1661493;84;21001;-85
2021/05/17 11:26:30;;;;;;;4.35;2.12;;;;;;;23.47;40.88;99006.67;1665895;84;21063;-87
2021/05/17 11:28:59;;;;;;;3.77;1.95;;;;;;;23.39;39.96;99009.91;1663724;84;21040;-91
2021/05/17 11:31:35;;;;;;;3.85;2.10;;;;;;;23.48;40.14;99000.22;1661867;83;21153;-88
2021/05/17 11:34:05;;;;;;;3.52;2.25;;;;;;;23.43;39.61;98996.98;1666003;84;21029;-87
2021/05/17 11:36:56;;;;;;;4.75;2.05;;;;;;;23.48;40.41;98991.59;1663223;84;21079;-88
2021/05/17 11:39:25;;;;;;;4.55;2.20;;;;;;;23.50;40.37;98984.58;1642610;86;21078;-90
2021/05/17 11:42:03;;;;;;;3.00;2.10;;;;;;;23.50;40.51;98983.23;1635538;86;21053;-85
2021/05/17 11:44:53;;;;;;;5.85;2.12;;;;;;;23.46;39.48;98982.98;1667436;84;21035;-87
2021/05/17 11:47:17;;;;;;;4.67;1.95;;;;;;;23.46;39.26;98984.84;1665452;84;21073;-87
2021/05/17 11:49:48;;;;;;;3.65;1.90;;;;;;;23.47;39.59;98990.51;1661455;84;21092;-85
2021/05/17 11:52:20;;;;;;;4.25;2.10;;;;;;;23.41;39.82;98988.89;1665500;84;21621;-85
2021/05/17 11:54:53;;;;;;;3.60;2.25;;;;;;;23.43;39.52;98984.03;1657423;84;21119;-85
2021/05/17 11:57:36;;;;;;;3.72;1.95;;;;;;;23.41;39.29;98988.89;1668340;84;21773;-86
2021/05/17 12:00:09;;;;;;;3.02;1.75;;;;;;;23.34;39.12;98982.95;1664263;84;21099;-87
2021/05/17 12:02:36;;;;;;;3.10;1.80;;;;;;;23.10;38.97;98980.78;1667886;84;21317;-88
2021/05/17 12:05:06;;;;;;;3.65;1.95;;;;;;;23.17;39.63;98984.59;1633439;86;21152;-84